sensor_id;sensor_type;location;lat;lon;timestamp;P1;durP1;ratioP1;P2;durP2;ratioP2
50968;SDS011;36982;51.474;7.228;2023-06-14T00:01:17;6.72;;;4.85;;
50968;SDS011;36982;51.474;7.228;2023-06-14T00:03:45;6.35;;;4.78;;
50968;SDS011;36982;51.474;7.228;2023-06-14T00:06:12;8.70;;;4.97;;
50968;SDS011;36982;51.474;7.228;2023-06-14T00:08:38;7.68;;;4.93;;
50968;SDS011;36982;51.474;7.228;2023-06-14T00:11:04;8.88;;;4.95;;
50968;SDS011;36982;51.474;7.228;2023-06-14T00:13:30;6.65;;;5.00;;
50968;SDS011;36982;51.474;7.228;2023-06-14T00:15:56;7.55;;;5.15;;
50968;SDS011;36982;51.474;7.228;2023-06-14T00:18:22;8.07;;;5.68;;
50968;SDS011;36982;51.474;7.228;2023-06-14T00:20:49;6.07;;;5.00;;
50968;SDS011;36982;51.474;7.228;2023-06-14T00:23:15;6.05;;;4.93;;
50968;SDS011;36982;51.474;7.228;2023-06-14T00:25:40;6.28;;;5.28;;
50968;SDS011;36982;51.474;7.228;2023-06-14T00:28:06;8.55;;;5.07;;
50968;SDS011;36982;51.474;7.228;2023-06-14T00:30:31;5.53;;;4.60;;
50968;SDS011;36982;51.474;7.228;2023-06-14T00:32:57;5.72;;;4.72;;
50968;SDS011;36982;51.474;7.228;2023-06-14T00:35:23;6.53;;;5.05;;
50968;SDS011;36982;51.474;7.228;2023-06-14T00:37:48;6.72;;;4.28;;
50968;SDS011;36982;51.474;7.228;2023-06-14T00:40:14;5.43;;;4.72;;
50968;SDS011;36982;51.474;7.228;2023-06-14T00:42:40;5.23;;;4.53;;
50968;SDS011;36982;51.474;7.228;2023-06-14T00:45:05;7.47;;;4.97;;
50968;SDS011;36982;51.474;7.228;2023-06-14T00:47:31;5.65;;;4.80;;
50968;SDS011;36982;51.474;7.228;2023-06-14T00:49:57;6.47;;;4.87;;
50968;SDS011;36982;51.474;7.228;2023-06-14T00:52:25;7.90;;;5.05;;
50968;SDS011;36982;51.474;7.228;2023-06-14T00:54:50;7.40;;;4.65;;
50968;SDS011;36982;51.474;7.228;2023-06-14T00:57:16;4.95;;;4.22;;
50968;SDS011;36982;51.474;7.228;2023-06-14T00:59:43;7.40;;;4.50;;
50968;SDS011;36982;51.474;7.228;2023-06-14T01:02:11;5.95;;;4.70;;
50968;SDS011;36982;51.474;7.228;2023-06-14T01:04:37;9.40;;;4.70;;
50968;SDS011;36982;51.474;7.228;2023-06-14T01:12:51;6.85;;;4.47;;
50968;SDS011;36982;51.474;7.228;2023-06-14T01:15:44;5.80;;;4.43;;
50968;SDS011;36982;51.474;7.228;2023-06-14T01:18:11;6.68;;;4.40;;
50968;SDS011;36982;51.474;7.228;2023-06-14T01:20:42;5.55;;;4.53;;
50968;SDS011;36982;51.474;7.228;2023-06-14T01:23:10;5.87;;;4.10;;
50968;SDS011;36982;51.474;7.228;2023-06-14T01:25:39;7.32;;;4.62;;
50968;SDS011;36982;51.474;7.228;2023-06-14T01:28:06;5.12;;;4.50;;
50968;SDS011;36982;51.474;7.228;2023-06-14T01:30:35;7.12;;;4.70;;
50968;SDS011;36982;51.474;7.228;2023-06-14T01:33:10;6.15;;;4.47;;
50968;SDS011;36982;51.474;7.228;2023-06-14T01:35:45;6.85;;;4.30;;
50968;SDS011;36982;51.474;7.228;2023-06-14T01:38:12;5.80;;;4.70;;
50968;SDS011;36982;51.474;7.228;2023-06-14T01:40:39;4.75;;;4.00;;
50968;SDS011;36982;51.474;7.228;2023-06-14T01:43:05;5.57;;;4.50;;
50968;SDS011;36982;51.474;7.228;2023-06-14T01:45:32;7.37;;;4.33;;
50968;SDS011;36982;51.474;7.228;2023-06-14T01:47:59;6.23;;;4.67;;
50968;SDS011;36982;51.474;7.228;2023-06-14T01:50:29;6.25;;;4.62;;
50968;SDS011;36982;51.474;7.228;2023-06-14T01:52:56;7.03;;;4.40;;
50968;SDS011;36982;51.474;7.228;2023-06-14T01:55:21;8.47;;;4.90;;
50968;SDS011;36982;51.474;7.228;2023-06-14T01:57:47;6.70;;;4.37;;
50968;SDS011;36982;51.474;7.228;2023-06-14T02:00:14;7.00;;;4.33;;
50968;SDS011;36982;51.474;7.228;2023-06-14T02:02:41;6.33;;;4.37;;
50968;SDS011;36982;51.474;7.228;2023-06-14T02:05:06;5.63;;;4.40;;
50968;SDS011;36982;51.474;7.228;2023-06-14T02:07:32;6.97;;;4.40;;
50968;SDS011;36982;51.474;7.228;2023-06-14T02:09:58;6.97;;;4.77;;
50968;SDS011;36982;51.474;7.228;2023-06-14T02:12:24;9.87;;;4.80;;
50968;SDS011;36982;51.474;7.228;2023-06-14T02:14:50;6.93;;;4.80;;
50968;SDS011;36982;51.474;7.228;2023-06-14T02:17:16;7.27;;;4.80;;
50968;SDS011;36982;51.474;7.228;2023-06-14T02:19:42;7.30;;;4.90;;
50968;SDS011;36982;51.474;7.228;2023-06-14T02:22:08;7.13;;;4.87;;
50968;SDS011;36982;51.474;7.228;2023-06-14T02:24:34;6.50;;;4.70;;
50968;SDS011;36982;51.474;7.228;2023-06-14T02:27:00;9.90;;;4.47;;
50968;SDS011;36982;51.474;7.228;2023-06-14T02:29:26;6.77;;;4.53;;
50968;SDS011;36982;51.474;7.228;2023-06-14T02:31:52;6.13;;;4.33;;
50968;SDS011;36982;51.474;7.228;2023-06-14T02:34:18;5.97;;;4.20;;
50968;SDS011;36982;51.474;7.228;2023-06-14T02:36:44;5.23;;;4.53;;
50968;SDS011;36982;51.474;7.228;2023-06-14T02:39:10;5.80;;;3.93;;
50968;SDS011;36982;51.474;7.228;2023-06-14T02:41:36;7.00;;;4.63;;
50968;SDS011;36982;51.474;7.228;2023-06-14T02:44:02;7.40;;;5.33;;
50968;SDS011;36982;51.474;7.228;2023-06-14T02:46:28;7.23;;;4.33;;
50968;SDS011;36982;51.474;7.228;2023-06-14T02:48:54;8.00;;;5.07;;
50968;SDS011;36982;51.474;7.228;2023-06-14T02:51:19;8.27;;;4.10;;
50968;SDS011;36982;51.474;7.228;2023-06-14T02:53:45;5.83;;;4.23;;
50968;SDS011;36982;51.474;7.228;2023-06-14T02:56:10;5.13;;;3.87;;
50968;SDS011;36982;51.474;7.228;2023-06-14T02:58:37;6.07;;;4.17;;
50968;SDS011;36982;51.474;7.228;2023-06-14T03:01:03;5.57;;;4.07;;
50968;SDS011;36982;51.474;7.228;2023-06-14T03:03:30;7.80;;;4.77;;
50968;SDS011;36982;51.474;7.228;2023-06-14T03:05:56;5.50;;;4.07;;
50968;SDS011;36982;51.474;7.228;2023-06-14T03:08:22;5.77;;;3.90;;
50968;SDS011;36982;51.474;7.228;2023-06-14T03:10:52;5.30;;;3.87;;
50968;SDS011;36982;51.474;7.228;2023-06-14T03:13:18;6.77;;;3.87;;
50968;SDS011;36982;51.474;7.228;2023-06-14T03:15:46;6.27;;;4.20;;
50968;SDS011;36982;51.474;7.228;2023-06-14T03:18:12;7.37;;;4.00;;
50968;SDS011;36982;51.474;7.228;2023-06-14T03:20:40;8.53;;;4.20;;
50968;SDS011;36982;51.474;7.228;2023-06-14T03:23:06;4.97;;;4.30;;
50968;SDS011;36982;51.474;7.228;2023-06-14T03:25:31;4.70;;;3.97;;
50968;SDS011;36982;51.474;7.228;2023-06-14T03:28:03;6.30;;;4.37;;
50968;SDS011;36982;51.474;7.228;2023-06-14T03:30:31;6.50;;;3.80;;
50968;SDS011;36982;51.474;7.228;2023-06-14T03:32:57;5.43;;;4.10;;
50968;SDS011;36982;51.474;7.228;2023-06-14T03:35:25;6.70;;;4.30;;
50968;SDS011;36982;51.474;7.228;2023-06-14T03:37:52;5.40;;;3.90;;
50968;SDS011;36982;51.474;7.228;2023-06-14T03:40:18;5.93;;;4.10;;
50968;SDS011;36982;51.474;7.228;2023-06-14T03:42:44;5.60;;;3.47;;
50968;SDS011;36982;51.474;7.228;2023-06-14T03:45:10;6.97;;;3.40;;
50968;SDS011;36982;51.474;7.228;2023-06-14T03:47:36;7.13;;;4.23;;
50968;SDS011;36982;51.474;7.228;2023-06-14T03:50:02;5.17;;;3.80;;
50968;SDS011;36982;51.474;7.228;2023-06-14T03:52:28;5.27;;;3.63;;
50968;SDS011;36982;51.474;7.228;2023-06-14T03:54:54;4.80;;;3.10;;
50968;SDS011;36982;51.474;7.228;2023-06-14T03:57:20;6.73;;;3.43;;
50968;SDS011;36982;51.474;7.228;2023-06-14T03:59:46;5.53;;;3.30;;
50968;SDS011;36982;51.474;7.228;2023-06-14T04:02:12;7.50;;;3.10;;
50968;SDS011;36982;51.474;7.228;2023-06-14T04:04:41;8.67;;;3.73;;
50968;SDS011;36982;51.474;7.228;2023-06-14T04:07:09;4.60;;;3.63;;
50968;SDS011;36982;51.474;7.228;2023-06-14T04:09:36;6.00;;;3.80;;
50968;SDS011;36982;51.474;7.228;2023-06-14T04:12:02;5.33;;;3.60;;
50968;SDS011;36982;51.474;7.228;2023-06-14T04:14:28;5.80;;;3.63;;
50968;SDS011;36982;51.474;7.228;2023-06-14T04:16:55;4.80;;;3.37;;
50968;SDS011;36982;51.474;7.228;2023-06-14T04:19:21;8.20;;;3.70;;
50968;SDS011;36982;51.474;7.228;2023-06-14T04:21:47;5.87;;;3.23;;
50968;SDS011;36982;51.474;7.228;2023-06-14T04:24:12;5.53;;;2.97;;
50968;SDS011;36982;51.474;7.228;2023-06-14T04:26:39;6.43;;;3.47;;
50968;SDS011;36982;51.474;7.228;2023-06-14T04:31:57;5.20;;;3.40;;
50968;SDS011;36982;51.474;7.228;2023-06-14T04:34:26;8.03;;;3.40;;
50968;SDS011;36982;51.474;7.228;2023-06-14T04:36:54;5.93;;;3.83;;
50968;SDS011;36982;51.474;7.228;2023-06-14T04:39:21;5.83;;;3.53;;
50968;SDS011;36982;51.474;7.228;2023-06-14T04:41:47;5.70;;;3.23;;
50968;SDS011;36982;51.474;7.228;2023-06-14T04:44:16;6.63;;;3.40;;
50968;SDS011;36982;51.474;7.228;2023-06-14T04:46:43;7.70;;;3.73;;
50968;SDS011;36982;51.474;7.228;2023-06-14T04:49:14;5.63;;;3.33;;
50968;SDS011;36982;51.474;7.228;2023-06-14T04:51:41;7.83;;;3.50;;
50968;SDS011;36982;51.474;7.228;2023-06-14T04:54:07;6.40;;;3.03;;
50968;SDS011;36982;51.474;7.228;2023-06-14T04:56:38;5.73;;;3.93;;
50968;SDS011;36982;51.474;7.228;2023-06-14T04:59:07;10.57;;;3.50;;
50968;SDS011;36982;51.474;7.228;2023-06-14T05:01:34;4.97;;;3.30;;
50968;SDS011;36982;51.474;7.228;2023-06-14T05:03:59;7.03;;;3.67;;
50968;SDS011;36982;51.474;7.228;2023-06-14T05:06:25;7.03;;;3.83;;
50968;SDS011;36982;51.474;7.228;2023-06-14T05:08:52;5.50;;;3.20;;
50968;SDS011;36982;51.474;7.228;2023-06-14T05:11:24;7.90;;;3.28;;
50968;SDS011;36982;51.474;7.228;2023-06-14T05:13:51;4.87;;;3.40;;
50968;SDS011;36982;51.474;7.228;2023-06-14T05:16:17;6.75;;;3.50;;
50968;SDS011;36982;51.474;7.228;2023-06-14T05:18:44;9.13;;;3.40;;
50968;SDS011;36982;51.474;7.228;2023-06-14T05:21:11;4.68;;;3.17;;
50968;SDS011;36982;51.474;7.228;2023-06-14T05:23:36;5.40;;;3.58;;
50968;SDS011;36982;51.474;7.228;2023-06-14T05:26:02;4.25;;;3.03;;
50968;SDS011;36982;51.474;7.228;2023-06-14T05:28:29;8.32;;;3.30;;
50968;SDS011;36982;51.474;7.228;2023-06-14T05:30:55;6.25;;;3.42;;
50968;SDS011;36982;51.474;7.228;2023-06-14T05:33:21;7.72;;;3.45;;
50968;SDS011;36982;51.474;7.228;2023-06-14T05:35:47;5.65;;;3.15;;
50968;SDS011;36982;51.474;7.228;2023-06-14T05:38:12;9.82;;;3.45;;
50968;SDS011;36982;51.474;7.228;2023-06-14T05:40:38;5.72;;;3.42;;
50968;SDS011;36982;51.474;7.228;2023-06-14T05:43:03;8.90;;;3.50;;
50968;SDS011;36982;51.474;7.228;2023-06-14T05:45:29;5.50;;;3.10;;
50968;SDS011;36982;51.474;7.228;2023-06-14T05:47:54;4.70;;;3.35;;
50968;SDS011;36982;51.474;7.228;2023-06-14T05:50:20;6.87;;;2.92;;
50968;SDS011;36982;51.474;7.228;2023-06-14T05:52:46;6.45;;;3.12;;
50968;SDS011;36982;51.474;7.228;2023-06-14T05:55:12;7.72;;;3.28;;
50968;SDS011;36982;51.474;7.228;2023-06-14T05:57:37;8.52;;;2.95;;
50968;SDS011;36982;51.474;7.228;2023-06-14T06:02:49;4.30;;;2.47;;
50968;SDS011;36982;51.474;7.228;2023-06-14T06:05:15;12.50;;;2.83;;
50968;SDS011;36982;51.474;7.228;2023-06-14T06:07:41;5.60;;;3.03;;
50968;SDS011;36982;51.474;7.228;2023-06-14T06:10:09;5.80;;;2.80;;
50968;SDS011;36982;51.474;7.228;2023-06-14T06:12:34;6.32;;;2.80;;
50968;SDS011;36982;51.474;7.228;2023-06-14T06:15:00;7.90;;;2.78;;
50968;SDS011;36982;51.474;7.228;2023-06-14T06:17:26;9.18;;;2.60;;
50968;SDS011;36982;51.474;7.228;2023-06-14T06:19:52;4.90;;;2.47;;
50968;SDS011;36982;51.474;7.228;2023-06-14T06:22:17;5.43;;;2.22;;
50968;SDS011;36982;51.474;7.228;2023-06-14T06:24:43;7.57;;;2.65;;
50968;SDS011;36982;51.474;7.228;2023-06-14T06:27:08;4.15;;;2.35;;
50968;SDS011;36982;51.474;7.228;2023-06-14T06:29:34;4.60;;;2.40;;
50968;SDS011;36982;51.474;7.228;2023-06-14T06:32:00;5.32;;;2.37;;
50968;SDS011;36982;51.474;7.228;2023-06-14T06:34:26;5.12;;;2.53;;
50968;SDS011;36982;51.474;7.228;2023-06-14T06:36:52;4.20;;;2.10;;
50968;SDS011;36982;51.474;7.228;2023-06-14T06:39:17;6.10;;;2.53;;
50968;SDS011;36982;51.474;7.228;2023-06-14T06:41:43;5.15;;;2.20;;
50968;SDS011;36982;51.474;7.228;2023-06-14T06:44:09;3.35;;;2.40;;
50968;SDS011;36982;51.474;7.228;2023-06-14T06:46:37;4.18;;;2.37;;
50968;SDS011;36982;51.474;7.228;2023-06-14T06:49:06;3.22;;;2.12;;
50968;SDS011;36982;51.474;7.228;2023-06-14T06:51:32;6.57;;;2.50;;
50968;SDS011;36982;51.474;7.228;2023-06-14T06:53:57;3.17;;;2.25;;
50968;SDS011;36982;51.474;7.228;2023-06-14T06:56:23;5.85;;;2.30;;
50968;SDS011;36982;51.474;7.228;2023-06-14T06:58:49;3.55;;;2.10;;
50968;SDS011;36982;51.474;7.228;2023-06-14T07:01:15;5.60;;;2.47;;
50968;SDS011;36982;51.474;7.228;2023-06-14T07:03:42;2.10;;;1.90;;
50968;SDS011;36982;51.474;7.228;2023-06-14T07:06:08;3.15;;;2.25;;
50968;SDS011;36982;51.474;7.228;2023-06-14T07:08:33;3.28;;;2.10;;
50968;SDS011;36982;51.474;7.228;2023-06-14T07:10:59;4.62;;;2.28;;
50968;SDS011;36982;51.474;7.228;2023-06-14T07:13:25;4.43;;;2.25;;
50968;SDS011;36982;51.474;7.228;2023-06-14T07:15:50;8.00;;;2.10;;
50968;SDS011;36982;51.474;7.228;2023-06-14T07:18:20;3.65;;;2.10;;
50968;SDS011;36982;51.474;7.228;2023-06-14T07:20:45;4.85;;;2.28;;
50968;SDS011;36982;51.474;7.228;2023-06-14T07:23:12;3.58;;;2.50;;
50968;SDS011;36982;51.474;7.228;2023-06-14T07:25:38;4.12;;;2.28;;
50968;SDS011;36982;51.474;7.228;2023-06-14T07:28:03;5.72;;;2.12;;
50968;SDS011;36982;51.474;7.228;2023-06-14T07:30:29;2.08;;;1.75;;
50968;SDS011;36982;51.474;7.228;2023-06-14T07:32:55;3.85;;;2.30;;
50968;SDS011;36982;51.474;7.228;2023-06-14T07:35:21;2.85;;;1.90;;
50968;SDS011;36982;51.474;7.228;2023-06-14T07:37:46;4.45;;;2.30;;
50968;SDS011;36982;51.474;7.228;2023-06-14T07:40:12;9.32;;;2.12;;
50968;SDS011;36982;51.474;7.228;2023-06-14T07:42:38;3.65;;;1.90;;
50968;SDS011;36982;51.474;7.228;2023-06-14T07:45:04;3.42;;;2.12;;
50968;SDS011;36982;51.474;7.228;2023-06-14T07:47:31;3.67;;;1.95;;
50968;SDS011;36982;51.474;7.228;2023-06-14T07:49:56;6.60;;;2.12;;
50968;SDS011;36982;51.474;7.228;2023-06-14T07:52:22;3.35;;;2.00;;
50968;SDS011;36982;51.474;7.228;2023-06-14T07:54:47;5.53;;;2.12;;
50968;SDS011;36982;51.474;7.228;2023-06-14T07:57:13;2.47;;;1.95;;
50968;SDS011;36982;51.474;7.228;2023-06-14T07:59:39;2.87;;;2.08;;
50968;SDS011;36982;51.474;7.228;2023-06-14T08:02:04;2.62;;;2.00;;
50968;SDS011;36982;51.474;7.228;2023-06-14T08:04:31;7.57;;;2.20;;
50968;SDS011;36982;51.474;7.228;2023-06-14T08:06:57;4.93;;;2.03;;
50968;SDS011;36982;51.474;7.228;2023-06-14T08:09:23;4.20;;;1.65;;
50968;SDS011;36982;51.474;7.228;2023-06-14T08:11:50;5.47;;;1.90;;
50968;SDS011;36982;51.474;7.228;2023-06-14T08:14:16;3.05;;;1.80;;
50968;SDS011;36982;51.474;7.228;2023-06-14T08:16:41;2.60;;;2.15;;
50968;SDS011;36982;51.474;7.228;2023-06-14T08:19:07;4.57;;;2.15;;
50968;SDS011;36982;51.474;7.228;2023-06-14T08:21:33;3.75;;;2.10;;
50968;SDS011;36982;51.474;7.228;2023-06-14T08:24:01;3.85;;;2.70;;
50968;SDS011;36982;51.474;7.228;2023-06-14T08:26:27;2.80;;;1.83;;
50968;SDS011;36982;51.474;7.228;2023-06-14T08:28:56;2.75;;;2.00;;
50968;SDS011;36982;51.474;7.228;2023-06-14T08:31:22;3.62;;;2.00;;
50968;SDS011;36982;51.474;7.228;2023-06-14T08:33:49;3.35;;;1.83;;
50968;SDS011;36982;51.474;7.228;2023-06-14T08:36:14;2.53;;;2.20;;
50968;SDS011;36982;51.474;7.228;2023-06-14T08:38:40;2.75;;;2.00;;
50968;SDS011;36982;51.474;7.228;2023-06-14T08:41:05;3.70;;;2.15;;
50968;SDS011;36982;51.474;7.228;2023-06-14T08:43:31;4.72;;;1.92;;
50968;SDS011;36982;51.474;7.228;2023-06-14T08:45:58;4.00;;;1.80;;
50968;SDS011;36982;51.474;7.228;2023-06-14T08:48:27;4.80;;;1.65;;
50968;SDS011;36982;51.474;7.228;2023-06-14T08:50:54;4.55;;;1.80;;
50968;SDS011;36982;51.474;7.228;2023-06-14T08:53:27;3.40;;;1.60;;
50968;SDS011;36982;51.474;7.228;2023-06-14T08:55:57;3.00;;;1.67;;
50968;SDS011;36982;51.474;7.228;2023-06-14T08:58:26;3.67;;;1.52;;
50968;SDS011;36982;51.474;7.228;2023-06-14T09:00:54;2.53;;;1.60;;
50968;SDS011;36982;51.474;7.228;2023-06-14T09:03:21;2.78;;;1.40;;
50968;SDS011;36982;51.474;7.228;2023-06-14T09:05:48;3.28;;;2.17;;
50968;SDS011;36982;51.474;7.228;2023-06-14T09:08:15;2.65;;;1.52;;
50968;SDS011;36982;51.474;7.228;2023-06-14T09:10:41;3.55;;;2.05;;
50968;SDS011;36982;51.474;7.228;2023-06-14T09:13:06;1.30;;;1.20;;
50968;SDS011;36982;51.474;7.228;2023-06-14T09:15:32;2.17;;;1.52;;
50968;SDS011;36982;51.474;7.228;2023-06-14T09:18:00;1.75;;;1.60;;
50968;SDS011;36982;51.474;7.228;2023-06-14T09:20:28;3.97;;;1.52;;
50968;SDS011;36982;51.474;7.228;2023-06-14T09:22:55;1.77;;;1.40;;
50968;SDS011;36982;51.474;7.228;2023-06-14T09:25:21;3.03;;;1.20;;
50968;SDS011;36982;51.474;7.228;2023-06-14T09:27:47;3.37;;;1.60;;
50968;SDS011;36982;51.474;7.228;2023-06-14T09:30:13;4.90;;;1.40;;
50968;SDS011;36982;51.474;7.228;2023-06-14T09:32:39;3.67;;;1.30;;
50968;SDS011;36982;51.474;7.228;2023-06-14T09:35:08;1.52;;;1.20;;
50968;SDS011;36982;51.474;7.228;2023-06-14T09:37:34;1.80;;;1.42;;
50968;SDS011;36982;51.474;7.228;2023-06-14T09:40:00;3.45;;;1.27;;
50968;SDS011;36982;51.474;7.228;2023-06-14T09:42:28;2.25;;;1.05;;
50968;SDS011;36982;51.474;7.228;2023-06-14T09:44:55;2.00;;;1.10;;
50968;SDS011;36982;51.474;7.228;2023-06-14T09:47:21;3.25;;;1.30;;
50968;SDS011;36982;51.474;7.228;2023-06-14T09:49:48;3.72;;;1.10;;
50968;SDS011;36982;51.474;7.228;2023-06-14T09:52:15;1.45;;;1.35;;
50968;SDS011;36982;51.474;7.228;2023-06-14T09:54:45;2.62;;;1.20;;
50968;SDS011;36982;51.474;7.228;2023-06-14T09:57:13;4.22;;;1.10;;
50968;SDS011;36982;51.474;7.228;2023-06-14T09:59:42;3.60;;;1.37;;
50968;SDS011;36982;51.474;7.228;2023-06-14T10:02:31;2.95;;;1.10;;
50968;SDS011;36982;51.474;7.228;2023-06-14T10:05:05;1.98;;;1.23;;
50968;SDS011;36982;51.474;7.228;2023-06-14T10:07:33;2.47;;;1.37;;
50968;SDS011;36982;51.474;7.228;2023-06-14T10:10:04;3.45;;;1.33;;
50968;SDS011;36982;51.474;7.228;2023-06-14T10:12:30;1.42;;;1.33;;
50968;SDS011;36982;51.474;7.228;2023-06-14T10:14:56;4.15;;;1.58;;
50968;SDS011;36982;51.474;7.228;2023-06-14T10:22:38;11.07;;;1.52;;
50968;SDS011;36982;51.474;7.228;2023-06-14T10:25:25;2.85;;;1.40;;
50968;SDS011;36982;51.474;7.228;2023-06-14T10:27:53;4.10;;;1.40;;
50968;SDS011;36982;51.474;7.228;2023-06-14T10:30:40;4.30;;;1.20;;
50968;SDS011;36982;51.474;7.228;2023-06-14T10:33:48;2.03;;;1.45;;
50968;SDS011;36982;51.474;7.228;2023-06-14T10:38:56;3.25;;;1.60;;
50968;SDS011;36982;51.474;7.228;2023-06-14T10:41:42;4.28;;;1.83;;
50968;SDS011;36982;51.474;7.228;2023-06-14T10:46:48;1.73;;;1.20;;
50968;SDS011;36982;51.474;7.228;2023-06-14T10:50:03;8.70;;;1.70;;
50968;SDS011;36982;51.474;7.228;2023-06-14T10:52:11;3.37;;;1.52;;
50968;SDS011;36982;51.474;7.228;2023-06-14T10:57:30;2.12;;;1.10;;
50968;SDS011;36982;51.474;7.228;2023-06-14T10:59:58;2.87;;;1.33;;
50968;SDS011;36982;51.474;7.228;2023-06-14T11:05:31;2.03;;;1.10;;
50968;SDS011;36982;51.474;7.228;2023-06-14T11:08:27;3.47;;;1.30;;
50968;SDS011;36982;51.474;7.228;2023-06-14T11:10:58;1.73;;;1.40;;
50968;SDS011;36982;51.474;7.228;2023-06-14T11:13:25;1.77;;;1.10;;
50968;SDS011;36982;51.474;7.228;2023-06-14T11:15:51;2.62;;;1.27;;
50968;SDS011;36982;51.474;7.228;2023-06-14T11:18:22;2.53;;;1.45;;
50968;SDS011;36982;51.474;7.228;2023-06-14T11:20:52;3.22;;;1.25;;
50968;SDS011;36982;51.474;7.228;2023-06-14T11:23:18;3.47;;;1.75;;
50968;SDS011;36982;51.474;7.228;2023-06-14T11:25:49;5.80;;;1.40;;
50968;SDS011;36982;51.474;7.228;2023-06-14T11:28:16;3.53;;;1.42;;
50968;SDS011;36982;51.474;7.228;2023-06-14T11:30:41;6.10;;;1.08;;
50968;SDS011;36982;51.474;7.228;2023-06-14T11:33:09;1.90;;;1.52;;
50968;SDS011;36982;51.474;7.228;2023-06-14T11:35:36;2.40;;;1.40;;
50968;SDS011;36982;51.474;7.228;2023-06-14T11:38:02;2.40;;;1.55;;
50968;SDS011;36982;51.474;7.228;2023-06-14T11:40:27;1.92;;;1.70;;
50968;SDS011;36982;51.474;7.228;2023-06-14T11:43:00;3.20;;;1.67;;
50968;SDS011;36982;51.474;7.228;2023-06-14T11:45:26;3.37;;;2.10;;
50968;SDS011;36982;51.474;7.228;2023-06-14T11:47:54;2.80;;;1.85;;
50968;SDS011;36982;51.474;7.228;2023-06-14T11:50:23;1.85;;;1.50;;
50968;SDS011;36982;51.474;7.228;2023-06-14T11:52:53;2.85;;;1.80;;
50968;SDS011;36982;51.474;7.228;2023-06-14T11:55:20;3.45;;;1.98;;
50968;SDS011;36982;51.474;7.228;2023-06-14T11:57:46;1.83;;;1.67;;
50968;SDS011;36982;51.474;7.228;2023-06-14T12:00:12;2.30;;;1.70;;
50968;SDS011;36982;51.474;7.228;2023-06-14T12:02:40;5.00;;;2.00;;
50968;SDS011;36982;51.474;7.228;2023-06-14T12:05:06;3.45;;;1.92;;
50968;SDS011;36982;51.474;7.228;2023-06-14T12:07:34;5.00;;;1.80;;
50968;SDS011;36982;51.474;7.228;2023-06-14T12:10:05;2.75;;;1.90;;
50968;SDS011;36982;51.474;7.228;2023-06-14T12:12:37;3.10;;;1.80;;
50968;SDS011;36982;51.474;7.228;2023-06-14T12:15:04;4.12;;;1.80;;
50968;SDS011;36982;51.474;7.228;2023-06-14T12:17:37;11.60;;;1.80;;
50968;SDS011;36982;51.474;7.228;2023-06-14T12:20:07;3.97;;;1.87;;
50968;SDS011;36982;51.474;7.228;2023-06-14T12:22:53;4.25;;;1.90;;
50968;SDS011;36982;51.474;7.228;2023-06-14T12:25:33;2.08;;;1.67;;
50968;SDS011;36982;51.474;7.228;2023-06-14T12:28:07;3.08;;;1.90;;
50968;SDS011;36982;51.474;7.228;2023-06-14T12:30:34;3.28;;;1.80;;
50968;SDS011;36982;51.474;7.228;2023-06-14T12:33:03;2.97;;;1.92;;
50968;SDS011;36982;51.474;7.228;2023-06-14T12:35:29;3.95;;;1.95;;
50968;SDS011;36982;51.474;7.228;2023-06-14T12:37:55;1.90;;;1.67;;
50968;SDS011;36982;51.474;7.228;2023-06-14T12:40:21;3.12;;;1.70;;
50968;SDS011;36982;51.474;7.228;2023-06-14T12:42:47;2.05;;;1.62;;
50968;SDS011;36982;51.474;7.228;2023-06-14T12:45:12;3.47;;;2.00;;
50968;SDS011;36982;51.474;7.228;2023-06-14T12:47:38;5.87;;;2.17;;
50968;SDS011;36982;51.474;7.228;2023-06-14T12:50:04;2.37;;;1.60;;
50968;SDS011;36982;51.474;7.228;2023-06-14T12:52:31;3.95;;;1.87;;
50968;SDS011;36982;51.474;7.228;2023-06-14T12:54:56;3.58;;;1.50;;
50968;SDS011;36982;51.474;7.228;2023-06-14T12:57:22;2.42;;;1.58;;
50968;SDS011;36982;51.474;7.228;2023-06-14T12:59:48;2.72;;;1.95;;
50968;SDS011;36982;51.474;7.228;2023-06-14T13:02:17;2.00;;;1.80;;
50968;SDS011;36982;51.474;7.228;2023-06-14T13:04:47;3.47;;;1.60;;
50968;SDS011;36982;51.474;7.228;2023-06-14T13:07:12;2.15;;;1.50;;
50968;SDS011;36982;51.474;7.228;2023-06-14T13:09:40;2.33;;;1.73;;
50968;SDS011;36982;51.474;7.228;2023-06-14T13:12:06;1.62;;;1.52;;
50968;SDS011;36982;51.474;7.228;2023-06-14T13:14:32;2.12;;;1.90;;
50968;SDS011;36982;51.474;7.228;2023-06-14T13:16:57;4.80;;;1.60;;
50968;SDS011;36982;51.474;7.228;2023-06-14T13:19:23;2.92;;;1.90;;
50968;SDS011;36982;51.474;7.228;2023-06-14T13:21:49;4.37;;;1.77;;
50968;SDS011;36982;51.474;7.228;2023-06-14T13:24:14;2.33;;;1.87;;
50968;SDS011;36982;51.474;7.228;2023-06-14T13:26:40;2.15;;;1.95;;
50968;SDS011;36982;51.474;7.228;2023-06-14T13:29:06;3.53;;;2.00;;
50968;SDS011;36982;51.474;7.228;2023-06-14T13:31:31;3.20;;;1.60;;
50968;SDS011;36982;51.474;7.228;2023-06-14T13:33:57;5.12;;;1.77;;
50968;SDS011;36982;51.474;7.228;2023-06-14T13:36:23;5.05;;;2.08;;
50968;SDS011;36982;51.474;7.228;2023-06-14T13:38:48;3.05;;;2.00;;
50968;SDS011;36982;51.474;7.228;2023-06-14T13:41:16;2.90;;;2.28;;
50968;SDS011;36982;51.474;7.228;2023-06-14T13:43:42;3.92;;;2.17;;
50968;SDS011;36982;51.474;7.228;2023-06-14T13:46:07;2.20;;;2.00;;
50968;SDS011;36982;51.474;7.228;2023-06-14T13:48:33;2.45;;;1.90;;
50968;SDS011;36982;51.474;7.228;2023-06-14T13:50:59;2.72;;;2.17;;
50968;SDS011;36982;51.474;7.228;2023-06-14T13:53:25;2.40;;;1.83;;
50968;SDS011;36982;51.474;7.228;2023-06-14T13:55:51;2.15;;;1.70;;
50968;SDS011;36982;51.474;7.228;2023-06-14T13:58:17;3.12;;;1.87;;
50968;SDS011;36982;51.474;7.228;2023-06-14T14:00:44;2.37;;;2.03;;
50968;SDS011;36982;51.474;7.228;2023-06-14T14:03:09;2.28;;;1.80;;
50968;SDS011;36982;51.474;7.228;2023-06-14T14:05:35;2.33;;;2.08;;
50968;SDS011;36982;51.474;7.228;2023-06-14T14:08:00;2.20;;;2.00;;
50968;SDS011;36982;51.474;7.228;2023-06-14T14:10:26;4.70;;;2.00;;
50968;SDS011;36982;51.474;7.228;2023-06-14T14:12:52;3.20;;;2.10;;
50968;SDS011;36982;51.474;7.228;2023-06-14T14:15:19;2.20;;;1.90;;
50968;SDS011;36982;51.474;7.228;2023-06-14T14:17:45;3.50;;;2.10;;
50968;SDS011;36982;51.474;7.228;2023-06-14T14:20:12;3.85;;;2.12;;
50968;SDS011;36982;51.474;7.228;2023-06-14T14:22:40;2.35;;;1.65;;
50968;SDS011;36982;51.474;7.228;2023-06-14T14:25:09;3.40;;;2.20;;
50968;SDS011;36982;51.474;7.228;2023-06-14T14:27:35;3.67;;;2.30;;
50968;SDS011;36982;51.474;7.228;2023-06-14T14:30:02;3.47;;;2.28;;
50968;SDS011;36982;51.474;7.228;2023-06-14T14:32:28;2.53;;;1.87;;
50968;SDS011;36982;51.474;7.228;2023-06-14T14:34:54;2.12;;;1.92;;
50968;SDS011;36982;51.474;7.228;2023-06-14T14:37:19;2.20;;;2.00;;
50968;SDS011;36982;51.474;7.228;2023-06-14T14:39:45;3.92;;;2.15;;
50968;SDS011;36982;51.474;7.228;2023-06-14T14:42:11;3.90;;;2.10;;
50968;SDS011;36982;51.474;7.228;2023-06-14T14:44:38;2.25;;;1.98;;
50968;SDS011;36982;51.474;7.228;2023-06-14T14:47:04;3.90;;;2.58;;
50968;SDS011;36982;51.474;7.228;2023-06-14T14:49:30;4.00;;;2.30;;
50968;SDS011;36982;51.474;7.228;2023-06-14T14:51:56;2.70;;;2.20;;
50968;SDS011;36982;51.474;7.228;2023-06-14T14:54:22;2.50;;;2.20;;
50968;SDS011;36982;51.474;7.228;2023-06-14T14:56:48;5.78;;;2.10;;
50968;SDS011;36982;51.474;7.228;2023-06-14T14:59:14;3.22;;;1.95;;
50968;SDS011;36982;51.474;7.228;2023-06-14T15:01:39;2.28;;;1.98;;
50968;SDS011;36982;51.474;7.228;2023-06-14T15:04:05;2.60;;;2.03;;
50968;SDS011;36982;51.474;7.228;2023-06-14T15:06:31;2.60;;;2.40;;
50968;SDS011;36982;51.474;7.228;2023-06-14T15:08:56;2.45;;;2.03;;
50968;SDS011;36982;51.474;7.228;2023-06-14T15:11:22;2.75;;;1.90;;
50968;SDS011;36982;51.474;7.228;2023-06-14T15:13:55;2.83;;;1.92;;
50968;SDS011;36982;51.474;7.228;2023-06-14T15:16:20;2.58;;;2.28;;